sensor_id;sensor_type;location;lat;lon;timestamp;P1;durP1;ratioP1;P2;durP2;ratioP2
25980;SDS011;13772;52.996;9.124;2023-05-27T08:43:21;16.00;;;4.85;;
25980;SDS011;13772;52.996;9.124;2023-05-27T08:45:48;18.75;;;5.07;;
25980;SDS011;13772;52.996;9.124;2023-05-27T08:48:13;17.05;;;4.80;;
25980;SDS011;13772;52.996;9.124;2023-05-27T08:50:41;14.80;;;4.90;;
25980;SDS011;13772;52.996;9.124;2023-05-27T08:53:07;15.82;;;5.18;;
25980;SDS011;13772;52.996;9.124;2023-05-27T08:55:33;14.82;;;4.93;;
25980;SDS011;13772;52.996;9.124;2023-05-27T08:57:59;16.77;;;4.72;;
25980;SDS011;13772;52.996;9.124;2023-05-27T09:00:29;12.35;;;4.43;;
25980;SDS011;13772;52.996;9.124;2023-05-27T09:03:01;16.63;;;4.93;;
25980;SDS011;13772;52.996;9.124;2023-05-27T09:05:30;15.88;;;4.78;;
25980;SDS011;13772;52.996;9.124;2023-05-27T09:07:55;15.10;;;4.82;;
25980;SDS011;13772;52.996;9.124;2023-05-27T09:10:21;16.45;;;4.80;;
25980;SDS011;13772;52.996;9.124;2023-05-27T09:12:46;14.07;;;4.63;;
25980;SDS011;13772;52.996;9.124;2023-05-27T09:15:12;21.52;;;5.07;;
25980;SDS011;13772;52.996;9.124;2023-05-27T09:17:41;16.67;;;4.88;;
25980;SDS011;13772;52.996;9.124;2023-05-27T09:20:06;11.88;;;3.90;;
25980;SDS011;13772;52.996;9.124;2023-05-27T09:22:32;14.35;;;5.00;;
25980;SDS011;13772;52.996;9.124;2023-05-27T09:24:58;15.02;;;4.70;;
25980;SDS011;13772;52.996;9.124;2023-05-27T09:27:24;14.63;;;4.40;;
25980;SDS011;13772;52.996;9.124;2023-05-27T09:29:49;12.70;;;4.20;;
25980;SDS011;13772;52.996;9.124;2023-05-27T09:32:23;15.23;;;4.50;;
25980;SDS011;13772;52.996;9.124;2023-05-27T09:34:48;14.65;;;4.95;;
25980;SDS011;13772;52.996;9.124;2023-05-27T09:37:13;15.73;;;4.43;;
25980;SDS011;13772;52.996;9.124;2023-05-27T09:39:39;13.63;;;4.45;;
25980;SDS011;13772;52.996;9.124;2023-05-27T09:42:04;15.15;;;4.70;;
25980;SDS011;13772;52.996;9.124;2023-05-27T09:44:34;16.42;;;5.65;;
25980;SDS011;13772;52.996;9.124;2023-05-27T09:47:02;13.95;;;4.63;;
25980;SDS011;13772;52.996;9.124;2023-05-27T09:49:28;11.48;;;4.75;;
25980;SDS011;13772;52.996;9.124;2023-05-27T09:51:54;11.90;;;5.07;;
25980;SDS011;13772;52.996;9.124;2023-05-27T09:54:22;14.15;;;4.82;;
25980;SDS011;13772;52.996;9.124;2023-05-27T09:56:48;12.60;;;4.47;;
25980;SDS011;13772;52.996;9.124;2023-05-27T09:59:14;14.68;;;4.78;;
25980;SDS011;13772;52.996;9.124;2023-05-27T10:01:39;11.32;;;4.10;;
25980;SDS011;13772;52.996;9.124;2023-05-27T10:04:06;14.07;;;4.38;;
25980;SDS011;13772;52.996;9.124;2023-05-27T10:06:31;10.23;;;4.07;;
25980;SDS011;13772;52.996;9.124;2023-05-27T10:08:57;17.02;;;5.22;;
25980;SDS011;13772;52.996;9.124;2023-05-27T10:11:23;14.77;;;5.10;;
25980;SDS011;13772;52.996;9.124;2023-05-27T10:13:49;14.27;;;4.72;;
25980;SDS011;13772;52.996;9.124;2023-05-27T10:16:25;14.88;;;4.63;;
25980;SDS011;13772;52.996;9.124;2023-05-27T10:18:55;12.02;;;4.35;;
25980;SDS011;13772;52.996;9.124;2023-05-27T10:21:21;15.85;;;5.38;;
25980;SDS011;13772;52.996;9.124;2023-05-27T10:24:00;16.85;;;5.03;;
25980;SDS011;13772;52.996;9.124;2023-05-27T10:26:32;14.90;;;4.35;;
25980;SDS011;13772;52.996;9.124;2023-05-27T10:31:52;13.02;;;4.57;;
25980;SDS011;13772;52.996;9.124;2023-05-27T10:34:17;13.65;;;5.38;;
25980;SDS011;13772;52.996;9.124;2023-05-27T10:36:43;14.35;;;5.25;;
25980;SDS011;13772;52.996;9.124;2023-05-27T10:39:13;13.45;;;4.78;;
25980;SDS011;13772;52.996;9.124;2023-05-27T10:41:42;11.27;;;4.50;;
25980;SDS011;13772;52.996;9.124;2023-05-27T10:44:07;14.30;;;4.85;;
25980;SDS011;13772;52.996;9.124;2023-05-27T10:46:40;17.45;;;4.50;;
25980;SDS011;13772;52.996;9.124;2023-05-27T10:49:22;12.15;;;4.95;;
25980;SDS011;13772;52.996;9.124;2023-05-27T10:51:48;11.45;;;4.38;;
25980;SDS011;13772;52.996;9.124;2023-05-27T10:54:14;10.32;;;3.75;;
25980;SDS011;13772;52.996;9.124;2023-05-27T10:56:47;14.13;;;4.80;;
25980;SDS011;13772;52.996;9.124;2023-05-27T10:59:15;11.80;;;4.63;;
25980;SDS011;13772;52.996;9.124;2023-05-27T11:01:43;9.60;;;3.65;;
25980;SDS011;13772;52.996;9.124;2023-05-27T11:04:09;12.60;;;4.30;;
25980;SDS011;13772;52.996;9.124;2023-05-27T11:06:34;14.98;;;5.22;;
25980;SDS011;13772;52.996;9.124;2023-05-27T11:08:59;12.10;;;4.55;;
25980;SDS011;13772;52.996;9.124;2023-05-27T11:11:24;13.67;;;4.57;;
25980;SDS011;13772;52.996;9.124;2023-05-27T11:13:50;11.98;;;4.35;;
25980;SDS011;13772;52.996;9.124;2023-05-27T11:16:16;13.10;;;4.78;;
25980;SDS011;13772;52.996;9.124;2023-05-27T11:18:42;12.63;;;4.70;;
25980;SDS011;13772;52.996;9.124;2023-05-27T11:21:08;13.82;;;4.90;;
25980;SDS011;13772;52.996;9.124;2023-05-27T11:23:35;13.57;;;4.53;;
25980;SDS011;13772;52.996;9.124;2023-05-27T11:26:00;12.38;;;4.60;;
25980;SDS011;13772;52.996;9.124;2023-05-27T11:28:26;10.35;;;4.53;;
25980;SDS011;13772;52.996;9.124;2023-05-27T11:30:51;9.70;;;4.05;;
25980;SDS011;13772;52.996;9.124;2023-05-27T11:33:16;10.53;;;4.40;;
25980;SDS011;13772;52.996;9.124;2023-05-27T11:35:41;10.50;;;3.90;;
25980;SDS011;13772;52.996;9.124;2023-05-27T11:38:15;11.63;;;4.30;;
25980;SDS011;13772;52.996;9.124;2023-05-27T11:40:41;10.65;;;4.22;;
25980;SDS011;13772;52.996;9.124;2023-05-27T11:43:06;11.67;;;4.43;;
25980;SDS011;13772;52.996;9.124;2023-05-27T11:45:34;12.20;;;3.97;;
25980;SDS011;13772;52.996;9.124;2023-05-27T11:48:00;10.95;;;4.38;;
25980;SDS011;13772;52.996;9.124;2023-05-27T11:50:25;12.70;;;4.53;;
25980;SDS011;13772;52.996;9.124;2023-05-27T11:52:53;13.63;;;4.78;;
25980;SDS011;13772;52.996;9.124;2023-05-27T11:55:19;12.43;;;4.13;;
25980;SDS011;13772;52.996;9.124;2023-05-27T11:57:44;10.88;;;3.80;;
25980;SDS011;13772;52.996;9.124;2023-05-27T12:03:01;10.63;;;4.30;;
25980;SDS011;13772;52.996;9.124;2023-05-27T12:05:26;9.60;;;4.10;;
25980;SDS011;13772;52.996;9.124;2023-05-27T12:07:51;12.67;;;4.03;;
25980;SDS011;13772;52.996;9.124;2023-05-27T12:10:16;9.40;;;3.53;;
25980;SDS011;13772;52.996;9.124;2023-05-27T12:12:41;11.03;;;3.43;;
25980;SDS011;13772;52.996;9.124;2023-05-27T12:15:09;9.20;;;3.60;;
25980;SDS011;13772;52.996;9.124;2023-05-27T12:17:34;10.10;;;3.45;;
25980;SDS011;13772;52.996;9.124;2023-05-27T12:19:59;9.93;;;3.80;;
25980;SDS011;13772;52.996;9.124;2023-05-27T12:22:25;11.97;;;4.20;;
25980;SDS011;13772;52.996;9.124;2023-05-27T12:24:50;10.77;;;3.90;;
25980;SDS011;13772;52.996;9.124;2023-05-27T12:27:17;13.05;;;4.10;;
25980;SDS011;13772;52.996;9.124;2023-05-27T12:29:42;13.18;;;4.18;;
25980;SDS011;13772;52.996;9.124;2023-05-27T12:32:07;10.87;;;3.93;;
25980;SDS011;13772;52.996;9.124;2023-05-27T12:34:32;8.80;;;4.00;;
25980;SDS011;13772;52.996;9.124;2023-05-27T12:36:58;11.93;;;4.20;;
25980;SDS011;13772;52.996;9.124;2023-05-27T12:39:23;12.17;;;3.83;;
25980;SDS011;13772;52.996;9.124;2023-05-27T12:41:48;10.40;;;3.93;;
25980;SDS011;13772;52.996;9.124;2023-05-27T12:44:13;11.03;;;3.50;;
25980;SDS011;13772;52.996;9.124;2023-05-27T12:46:38;9.13;;;3.13;;
25980;SDS011;13772;52.996;9.124;2023-05-27T12:49:04;10.85;;;3.15;;
25980;SDS011;13772;52.996;9.124;2023-05-27T12:51:29;10.25;;;3.63;;
25980;SDS011;13772;52.996;9.124;2023-05-27T12:53:55;13.18;;;3.75;;
25980;SDS011;13772;52.996;9.124;2023-05-27T12:56:21;8.02;;;3.05;;
25980;SDS011;13772;52.996;9.124;2023-05-27T12:58:47;9.38;;;3.35;;
25980;SDS011;13772;52.996;9.124;2023-05-27T13:01:12;8.70;;;3.27;;
25980;SDS011;13772;52.996;9.124;2023-05-27T13:03:38;7.35;;;3.03;;
25980;SDS011;13772;52.996;9.124;2023-05-27T13:06:03;7.63;;;2.90;;
25980;SDS011;13772;52.996;9.124;2023-05-27T13:08:28;7.72;;;3.55;;
25980;SDS011;13772;52.996;9.124;2023-05-27T13:10:54;7.80;;;3.47;;
25980;SDS011;13772;52.996;9.124;2023-05-27T13:13:19;7.17;;;2.80;;
25980;SDS011;13772;52.996;9.124;2023-05-27T13:15:44;8.37;;;3.40;;
25980;SDS011;13772;52.996;9.124;2023-05-27T13:18:09;9.40;;;3.40;;
25980;SDS011;13772;52.996;9.124;2023-05-27T13:20:35;8.00;;;3.03;;
25980;SDS011;13772;52.996;9.124;2023-05-27T13:23:00;10.43;;;3.77;;
25980;SDS011;13772;52.996;9.124;2023-05-27T13:25:27;7.68;;;3.13;;
25980;SDS011;13772;52.996;9.124;2023-05-27T13:27:53;8.73;;;3.40;;
25980;SDS011;13772;52.996;9.124;2023-05-27T13:30:19;9.95;;;3.30;;
25980;SDS011;13772;52.996;9.124;2023-05-27T13:32:45;8.38;;;3.28;;
25980;SDS011;13772;52.996;9.124;2023-05-27T13:35:10;8.37;;;3.33;;
25980;SDS011;13772;52.996;9.124;2023-05-27T13:37:36;9.25;;;3.40;;
25980;SDS011;13772;52.996;9.124;2023-05-27T13:40:02;8.23;;;2.95;;
25980;SDS011;13772;52.996;9.124;2023-05-27T13:42:27;8.73;;;3.10;;
25980;SDS011;13772;52.996;9.124;2023-05-27T13:44:52;6.23;;;3.00;;
25980;SDS011;13772;52.996;9.124;2023-05-27T13:47:18;9.60;;;3.40;;
25980;SDS011;13772;52.996;9.124;2023-05-27T13:49:43;8.77;;;3.15;;
25980;SDS011;13772;52.996;9.124;2023-05-27T13:52:08;10.80;;;3.80;;
25980;SDS011;13772;52.996;9.124;2023-05-27T13:54:33;9.97;;;3.43;;
25980;SDS011;13772;52.996;9.124;2023-05-27T13:56:59;10.30;;;3.38;;
25980;SDS011;13772;52.996;9.124;2023-05-27T13:59:24;7.50;;;3.30;;
25980;SDS011;13772;52.996;9.124;2023-05-27T14:01:49;7.90;;;3.17;;
25980;SDS011;13772;52.996;9.124;2023-05-27T14:04:19;8.98;;;3.45;;
25980;SDS011;13772;52.996;9.124;2023-05-27T14:06:45;7.53;;;2.97;;
25980;SDS011;13772;52.996;9.124;2023-05-27T14:09:11;8.10;;;3.30;;
25980;SDS011;13772;52.996;9.124;2023-05-27T14:11:36;10.00;;;3.38;;
25980;SDS011;13772;52.996;9.124;2023-05-27T14:14:01;7.13;;;3.17;;
25980;SDS011;13772;52.996;9.124;2023-05-27T14:16:26;8.60;;;2.90;;
25980;SDS011;13772;52.996;9.124;2023-05-27T14:18:51;8.35;;;3.35;;
25980;SDS011;13772;52.996;9.124;2023-05-27T14:21:17;10.63;;;3.07;;
25980;SDS011;13772;52.996;9.124;2023-05-27T14:23:43;8.90;;;3.30;;
25980;SDS011;13772;52.996;9.124;2023-05-27T14:26:08;12.90;;;3.40;;
25980;SDS011;13772;52.996;9.124;2023-05-27T14:28:34;10.43;;;3.72;;
25980;SDS011;13772;52.996;9.124;2023-05-27T14:30:59;10.50;;;3.17;;
25980;SDS011;13772;52.996;9.124;2023-05-27T14:33:24;7.50;;;2.75;;
25980;SDS011;13772;52.996;9.124;2023-05-27T14:35:50;10.00;;;3.30;;
25980;SDS011;13772;52.996;9.124;2023-05-27T14:38:16;8.40;;;3.37;;
25980;SDS011;13772;52.996;9.124;2023-05-27T14:40:41;8.35;;;3.15;;
25980;SDS011;13772;52.996;9.124;2023-05-27T14:43:08;9.60;;;3.45;;
25980;SDS011;13772;52.996;9.124;2023-05-27T14:45:34;9.43;;;3.30;;
25980;SDS011;13772;52.996;9.124;2023-05-27T14:47:59;8.38;;;2.95;;
25980;SDS011;13772;52.996;9.124;2023-05-27T14:50:24;8.80;;;3.80;;
25980;SDS011;13772;52.996;9.124;2023-05-27T14:52:50;7.75;;;3.25;;
25980;SDS011;13772;52.996;9.124;2023-05-27T14:55:15;12.02;;;3.33;;
25980;SDS011;13772;52.996;9.124;2023-05-27T14:57:41;7.90;;;3.17;;
25980;SDS011;13772;52.996;9.124;2023-05-27T15:00:06;7.55;;;2.92;;
25980;SDS011;13772;52.996;9.124;2023-05-27T15:02:33;9.80;;;3.33;;
25980;SDS011;13772;52.996;9.124;2023-05-27T15:04:58;8.88;;;3.30;;
25980;SDS011;13772;52.996;9.124;2023-05-27T15:07:24;10.05;;;3.83;;
25980;SDS011;13772;52.996;9.124;2023-05-27T15:09:49;8.80;;;3.40;;
25980;SDS011;13772;52.996;9.124;2023-05-27T15:12:15;10.93;;;3.80;;
25980;SDS011;13772;52.996;9.124;2023-05-27T15:14:40;10.13;;;3.30;;
25980;SDS011;13772;52.996;9.124;2023-05-27T15:17:05;8.77;;;3.35;;
25980;SDS011;13772;52.996;9.124;2023-05-27T15:19:35;8.50;;;3.08;;
25980;SDS011;13772;52.996;9.124;2023-05-27T15:22:01;11.10;;;3.77;;
25980;SDS011;13772;52.996;9.124;2023-05-27T15:24:26;11.23;;;3.78;;
25980;SDS011;13772;52.996;9.124;2023-05-27T15:26:51;10.27;;;3.33;;
25980;SDS011;13772;52.996;9.124;2023-05-27T15:29:17;9.32;;;3.50;;
25980;SDS011;13772;52.996;9.124;2023-05-27T15:31:43;11.00;;;3.45;;
25980;SDS011;13772;52.996;9.124;2023-05-27T15:34:08;7.90;;;3.03;;
25980;SDS011;13772;52.996;9.124;2023-05-27T15:36:33;9.17;;;3.17;;
25980;SDS011;13772;52.996;9.124;2023-05-27T15:38:59;11.23;;;3.30;;
25980;SDS011;13772;52.996;9.124;2023-05-27T15:41:24;8.93;;;3.00;;
25980;SDS011;13772;52.996;9.124;2023-05-27T15:43:50;9.52;;;3.95;;
25980;SDS011;13772;52.996;9.124;2023-05-27T15:46:15;10.50;;;3.20;;
25980;SDS011;13772;52.996;9.124;2023-05-27T15:48:41;8.63;;;3.70;;
25980;SDS011;13772;52.996;9.124;2023-05-27T15:51:06;11.73;;;3.40;;
25980;SDS011;13772;52.996;9.124;2023-05-27T15:53:31;11.60;;;3.78;;
25980;SDS011;13772;52.996;9.124;2023-05-27T15:55:57;9.68;;;3.45;;
25980;SDS011;13772;52.996;9.124;2023-05-27T15:58:22;9.18;;;3.65;;
25980;SDS011;13772;52.996;9.124;2023-05-27T16:00:47;9.03;;;3.20;;
25980;SDS011;13772;52.996;9.124;2023-05-27T16:03:13;8.55;;;2.90;;
25980;SDS011;13772;52.996;9.124;2023-05-27T16:05:38;10.73;;;3.88;;
25980;SDS011;13772;52.996;9.124;2023-05-27T16:08:03;11.70;;;3.15;;
25980;SDS011;13772;52.996;9.124;2023-05-27T16:10:28;7.80;;;2.83;;
25980;SDS011;13772;52.996;9.124;2023-05-27T16:12:54;9.33;;;3.20;;
25980;SDS011;13772;52.996;9.124;2023-05-27T16:15:19;11.70;;;3.25;;
25980;SDS011;13772;52.996;9.124;2023-05-27T16:17:44;10.55;;;3.50;;
25980;SDS011;13772;52.996;9.124;2023-05-27T16:20:10;6.97;;;3.05;;
25980;SDS011;13772;52.996;9.124;2023-05-27T16:22:35;12.13;;;3.30;;
25980;SDS011;13772;52.996;9.124;2023-05-27T16:25:00;9.98;;;3.63;;
25980;SDS011;13772;52.996;9.124;2023-05-27T16:27:25;8.80;;;3.20;;
25980;SDS011;13772;52.996;9.124;2023-05-27T16:29:51;6.80;;;3.00;;
25980;SDS011;13772;52.996;9.124;2023-05-27T16:32:16;9.15;;;3.47;;
25980;SDS011;13772;52.996;9.124;2023-05-27T16:34:42;7.88;;;3.13;;
25980;SDS011;13772;52.996;9.124;2023-05-27T16:37:07;11.50;;;3.63;;
25980;SDS011;13772;52.996;9.124;2023-05-27T16:39:32;9.57;;;3.60;;
25980;SDS011;13772;52.996;9.124;2023-05-27T16:41:57;7.93;;;3.60;;
25980;SDS011;13772;52.996;9.124;2023-05-27T16:44:24;8.02;;;3.40;;
25980;SDS011;13772;52.996;9.124;2023-05-27T16:46:50;9.68;;;3.13;;
25980;SDS011;13772;52.996;9.124;2023-05-27T16:49:15;8.03;;;3.10;;
25980;SDS011;13772;52.996;9.124;2023-05-27T16:51:41;11.77;;;3.25;;
25980;SDS011;13772;52.996;9.124;2023-05-27T16:54:06;8.30;;;3.25;;
25980;SDS011;13772;52.996;9.124;2023-05-27T16:56:31;11.48;;;3.58;;
25980;SDS011;13772;52.996;9.124;2023-05-27T16:58:56;8.30;;;3.75;;
25980;SDS011;13772;52.996;9.124;2023-05-27T17:01:22;7.57;;;3.30;;
25980;SDS011;13772;52.996;9.124;2023-05-27T17:03:47;7.43;;;3.20;;
25980;SDS011;13772;52.996;9.124;2023-05-27T17:06:12;8.95;;;3.38;;
25980;SDS011;13772;52.996;9.124;2023-05-27T17:08:39;9.88;;;3.45;;
25980;SDS011;13772;52.996;9.124;2023-05-27T17:11:05;10.48;;;3.03;;
25980;SDS011;13772;52.996;9.124;2023-05-27T17:13:30;13.00;;;3.65;;
25980;SDS011;13772;52.996;9.124;2023-05-27T17:15:55;9.30;;;3.38;;
25980;SDS011;13772;52.996;9.124;2023-05-27T17:18:20;9.18;;;3.17;;
25980;SDS011;13772;52.996;9.124;2023-05-27T17:20:46;10.25;;;3.53;;
25980;SDS011;13772;52.996;9.124;2023-05-27T17:23:11;12.25;;;3.22;;
25980;SDS011;13772;52.996;9.124;2023-05-27T17:25:36;11.55;;;3.67;;
25980;SDS011;13772;52.996;9.124;2023-05-27T17:28:02;9.82;;;3.63;;
25980;SDS011;13772;52.996;9.124;2023-05-27T17:30:27;10.18;;;3.10;;
25980;SDS011;13772;52.996;9.124;2023-05-27T17:32:52;10.32;;;3.72;;
25980;SDS011;13772;52.996;9.124;2023-05-27T17:35:18;7.82;;;3.13;;
25980;SDS011;13772;52.996;9.124;2023-05-27T17:37:43;11.25;;;3.40;;
25980;SDS011;13772;52.996;9.124;2023-05-27T17:40:08;13.15;;;3.22;;
25980;SDS011;13772;52.996;9.124;2023-05-27T17:42:36;13.10;;;3.58;;
25980;SDS011;13772;52.996;9.124;2023-05-27T17:45:01;9.50;;;3.17;;
25980;SDS011;13772;52.996;9.124;2023-05-27T17:47:27;8.18;;;3.15;;
25980;SDS011;13772;52.996;9.124;2023-05-27T17:49:52;10.10;;;3.10;;
25980;SDS011;13772;52.996;9.124;2023-05-27T17:52:17;9.57;;;3.58;;
25980;SDS011;13772;52.996;9.124;2023-05-27T17:54:42;11.75;;;3.70;;
25980;SDS011;13772;52.996;9.124;2023-05-27T17:57:08;8.93;;;3.00;;
25980;SDS011;13772;52.996;9.124;2023-05-27T17:59:33;11.65;;;3.60;;
25980;SDS011;13772;52.996;9.124;2023-05-27T18:01:58;7.78;;;3.35;;
25980;SDS011;13772;52.996;9.124;2023-05-27T18:04:23;11.63;;;3.42;;
25980;SDS011;13772;52.996;9.124;2023-05-27T18:06:48;13.90;;;3.40;;
25980;SDS011;13772;52.996;9.124;2023-05-27T18:09:14;7.82;;;2.80;;
25980;SDS011;13772;52.996;9.124;2023-05-27T18:11:40;10.00;;;3.13;;
25980;SDS011;13772;52.996;9.124;2023-05-27T18:14:06;6.72;;;2.63;;
25980;SDS011;13772;52.996;9.124;2023-05-27T18:16:31;8.60;;;3.40;;
25980;SDS011;13772;52.996;9.124;2023-05-27T18:18:56;10.63;;;3.53;;
25980;SDS011;13772;52.996;9.124;2023-05-27T18:21:21;10.23;;;3.35;;
25980;SDS011;13772;52.996;9.124;2023-05-27T18:23:47;8.25;;;3.47;;
25980;SDS011;13772;52.996;9.124;2023-05-27T18:26:12;8.00;;;2.85;;
25980;SDS011;13772;52.996;9.124;2023-05-27T18:28:37;9.15;;;3.30;;
25980;SDS011;13772;52.996;9.124;2023-05-27T18:31:02;8.60;;;3.60;;
25980;SDS011;13772;52.996;9.124;2023-05-27T18:33:28;9.68;;;3.38;;
25980;SDS011;13772;52.996;9.124;2023-05-27T18:35:53;7.88;;;3.22;;
25980;SDS011;13772;52.996;9.124;2023-05-27T18:38:18;8.73;;;3.22;;
25980;SDS011;13772;52.996;9.124;2023-05-27T18:40:44;9.25;;;2.90;;
25980;SDS011;13772;52.996;9.124;2023-05-27T18:43:09;8.70;;;3.22;;
25980;SDS011;13772;52.996;9.124;2023-05-27T18:48:20;10.57;;;3.75;;
25980;SDS011;13772;52.996;9.124;2023-05-27T18:50:46;12.13;;;3.33;;
25980;SDS011;13772;52.996;9.124;2023-05-27T18:53:11;9.75;;;3.47;;
25980;SDS011;13772;52.996;9.124;2023-05-27T18:55:36;9.70;;;3.33;;
25980;SDS011;13772;52.996;9.124;2023-05-27T18:58:02;9.57;;;3.38;;
25980;SDS011;13772;52.996;9.124;2023-05-27T19:00:27;15.43;;;3.75;;
25980;SDS011;13772;52.996;9.124;2023-05-27T19:02:52;10.05;;;3.65;;
25980;SDS011;13772;52.996;9.124;2023-05-27T19:05:17;10.18;;;3.50;;
25980;SDS011;13772;52.996;9.124;2023-05-27T19:07:44;8.30;;;3.58;;
25980;SDS011;13772;52.996;9.124;2023-05-27T19:10:09;8.23;;;3.60;;
25980;SDS011;13772;52.996;9.124;2023-05-27T19:12:34;9.82;;;3.40;;
25980;SDS011;13772;52.996;9.124;2023-05-27T19:14:59;9.07;;;3.85;;
25980;SDS011;13772;52.996;9.124;2023-05-27T19:17:25;8.55;;;3.45;;
25980;SDS011;13772;52.996;9.124;2023-05-27T19:19:50;11.50;;;4.45;;
25980;SDS011;13772;52.996;9.124;2023-05-27T19:22:15;9.27;;;3.55;;
25980;SDS011;13772;52.996;9.124;2023-05-27T19:24:44;10.48;;;3.95;;
25980;SDS011;13772;52.996;9.124;2023-05-27T19:27:09;10.15;;;4.13;;
25980;SDS011;13772;52.996;9.124;2023-05-27T19:29:34;10.52;;;4.10;;
25980;SDS011;13772;52.996;9.124;2023-05-27T19:31:59;8.57;;;3.85;;
25980;SDS011;13772;52.996;9.124;2023-05-27T19:34:25;9.15;;;3.78;;
25980;SDS011;13772;52.996;9.124;2023-05-27T19:36:50;11.77;;;3.55;;
25980;SDS011;13772;52.996;9.124;2023-05-27T19:39:15;9.13;;;3.33;;
25980;SDS011;13772;52.996;9.124;2023-05-27T19:41:42;11.20;;;3.90;;
25980;SDS011;13772;52.996;9.124;2023-05-27T19:44:07;12.85;;;3.85;;
25980;SDS011;13772;52.996;9.124;2023-05-27T19:46:32;8.63;;;3.58;;
25980;SDS011;13772;52.996;9.124;2023-05-27T19:48:57;8.88;;;2.83;;
25980;SDS011;13772;52.996;9.124;2023-05-27T19:51:23;10.65;;;3.95;;
25980;SDS011;13772;52.996;9.124;2023-05-27T19:53:53;9.35;;;4.07;;
25980;SDS011;13772;52.996;9.124;2023-05-27T19:56:19;14.13;;;4.45;;
25980;SDS011;13772;52.996;9.124;2023-05-27T19:58:44;12.85;;;4.22;;
25980;SDS011;13772;52.996;9.124;2023-05-27T20:01:09;13.05;;;4.05;;
25980;SDS011;13772;52.996;9.124;2023-05-27T20:03:35;10.93;;;4.20;;
25980;SDS011;13772;52.996;9.124;2023-05-27T20:06:00;13.15;;;4.22;;
25980;SDS011;13772;52.996;9.124;2023-05-27T20:08:25;13.15;;;3.85;;
25980;SDS011;13772;52.996;9.124;2023-05-27T20:10:50;9.77;;;3.40;;
25980;SDS011;13772;52.996;9.124;2023-05-27T20:13:15;11.35;;;3.90;;
25980;SDS011;13772;52.996;9.124;2023-05-27T20:15:41;10.45;;;3.72;;
25980;SDS011;13772;52.996;9.124;2023-05-27T20:18:06;12.13;;;4.50;;
25980;SDS011;13772;52.996;9.124;2023-05-27T20:20:31;11.15;;;3.50;;
25980;SDS011;13772;52.996;9.124;2023-05-27T20:23:01;13.50;;;4.45;;
25980;SDS011;13772;52.996;9.124;2023-05-27T20:25:26;9.93;;;3.83;;
25980;SDS011;13772;52.996;9.124;2023-05-27T20:27:51;9.65;;;3.83;;
25980;SDS011;13772;52.996;9.124;2023-05-27T20:30:17;13.35;;;4.75;;
25980;SDS011;13772;52.996;9.124;2023-05-27T20:32:44;11.45;;;4.60;;
25980;SDS011;13772;52.996;9.124;2023-05-27T20:35:10;11.13;;;4.82;;
25980;SDS011;13772;52.996;9.124;2023-05-27T20:37:35;12.77;;;4.95;;
25980;SDS011;13772;52.996;9.124;2023-05-27T20:40:01;8.70;;;4.43;;
25980;SDS011;13772;52.996;9.124;2023-05-27T20:42:26;13.25;;;4.72;;
25980;SDS011;13772;52.996;9.124;2023-05-27T20:44:52;9.85;;;4.68;;
25980;SDS011;13772;52.996;9.124;2023-05-27T20:47:18;13.18;;;5.00;;
25980;SDS011;13772;52.996;9.124;2023-05-27T20:49:43;15.00;;;5.15;;
25980;SDS011;13772;52.996;9.124;2023-05-27T20:52:08;12.95;;;5.28;;
25980;SDS011;13772;52.996;9.124;2023-05-27T20:54:33;8.90;;;4.53;;
25980;SDS011;13772;52.996;9.124;2023-05-27T20:56:58;9.60;;;4.03;;
25980;SDS011;13772;52.996;9.124;2023-05-27T20:59:25;11.68;;;4.88;;
25980;SDS011;13772;52.996;9.124;2023-05-27T21:01:50;9.70;;;4.43;;
25980;SDS011;13772;52.996;9.124;2023-05-27T21:04:15;11.55;;;4.60;;
25980;SDS011;13772;52.996;9.124;2023-05-27T21:06:41;10.93;;;4.30;;
25980;SDS011;13772;52.996;9.124;2023-05-27T21:09:06;11.98;;;5.15;;
25980;SDS011;13772;52.996;9.124;2023-05-27T21:11:31;13.88;;;5.45;;
25980;SDS011;13772;52.996;9.124;2023-05-27T21:13:56;10.25;;;4.53;;
25980;SDS011;13772;52.996;9.124;2023-05-27T21:16:22;14.15;;;5.78;;
25980;SDS011;13772;52.996;9.124;2023-05-27T21:18:47;11.90;;;5.20;;
25980;SDS011;13772;52.996;9.124;2023-05-27T21:21:12;12.38;;;5.63;;
25980;SDS011;13772;52.996;9.124;2023-05-27T21:23:38;13.68;;;5.43;;
25980;SDS011;13772;52.996;9.124;2023-05-27T21:26:03;17.48;;;6.70;;
25980;SDS011;13772;52.996;9.124;2023-05-27T21:28:28;12.73;;;5.13;;
25980;SDS011;13772;52.996;9.124;2023-05-27T21:30:53;12.05;;;4.90;;
25980;SDS011;13772;52.996;9.124;2023-05-27T21:33:18;11.65;;;5.07;;
25980;SDS011;13772;52.996;9.124;2023-05-27T21:35:44;12.55;;;4.75;;
25980;SDS011;13772;52.996;9.124;2023-05-27T21:38:09;11.20;;;5.40;;
25980;SDS011;13772;52.996;9.124;2023-05-27T21:40:37;12.10;;;4.63;;
25980;SDS011;13772;52.996;9.124;2023-05-27T21:43:02;11.30;;;4.88;;
25980;SDS011;13772;52.996;9.124;2023-05-27T21:45:27;12.25;;;5.55;;
25980;SDS011;13772;52.996;9.124;2023-05-27T21:47:52;13.55;;;6.15;;
25980;SDS011;13772;52.996;9.124;2023-05-27T21:50:18;16.77;;;5.88;;
25980;SDS011;13772;52.996;9.124;2023-05-27T21:52:43;12.77;;;6.43;;
25980;SDS011;13772;52.996;9.124;2023-05-27T21:55:09;12.00;;;5.85;;
25980;SDS011;13772;52.996;9.124;2023-05-27T21:57:34;13.07;;;6.25;;
